createdAt,value
2018-06-29T00:02:14.808Z,72.50
2018-06-29T00:04:42.945Z,72.30
2018-06-29T00:07:11.340Z,73.30
2018-06-29T00:09:39.534Z,73.30
2018-06-29T00:12:08.478Z,73.10
2018-06-29T00:14:37.037Z,72.50
2018-06-29T00:17:05.170Z,72.20
2018-06-29T00:19:33.284Z,72.20
2018-06-29T00:22:01.439Z,73.50
2018-06-29T00:24:29.561Z,72.80
2018-06-29T00:26:57.677Z,72.40
2018-06-29T00:29:25.856Z,72.20
2018-06-29T00:31:53.985Z,72.60
2018-06-29T00:34:22.105Z,73.60
2018-06-29T00:36:50.237Z,72.90
2018-06-29T00:39:18.352Z,72.00
2018-06-29T00:41:46.481Z,70.70
2018-06-29T00:44:14.628Z,70.10
2018-06-29T00:46:42.753Z,69.10
2018-06-29T00:49:10.876Z,68.60
2018-06-29T00:51:39.493Z,68.00
2018-06-29T00:54:07.625Z,67.80
2018-06-29T00:56:35.776Z,67.30
2018-06-29T00:59:03.961Z,67.00
2018-06-29T01:01:32.107Z,66.80
2018-06-29T01:04:00.225Z,66.40
2018-06-29T01:06:28.376Z,65.90
2018-06-29T01:08:56.514Z,66.00
2018-06-29T01:11:24.664Z,65.60
2018-06-29T01:13:52.976Z,65.20
2018-06-29T01:16:21.094Z,64.90
2018-06-29T01:18:49.213Z,65.00
2018-06-29T01:21:17.656Z,64.90
2018-06-29T01:23:45.772Z,64.80
2018-06-29T01:26:13.885Z,64.30
2018-06-29T01:28:42.091Z,64.00
2018-06-29T01:31:10.144Z,63.70
2018-06-29T01:33:38.271Z,63.90
2018-06-29T01:36:06.703Z,64.20
2018-06-29T01:38:34.824Z,63.90
2018-06-29T01:41:02.945Z,63.70
2018-06-29T01:43:31.073Z,63.80
2018-06-29T01:45:59.824Z,63.80
2018-06-29T01:48:28.227Z,63.80
2018-06-29T01:50:56.348Z,63.70
2018-06-29T01:53:24.466Z,63.70
2018-06-29T01:55:52.582Z,63.70
2018-06-29T01:58:20.781Z,63.50
2018-06-29T02:00:48.907Z,63.60
2018-06-29T02:03:17.029Z,63.30
2018-06-29T02:05:45.160Z,63.10
2018-06-29T02:08:13.276Z,63.00
2018-06-29T02:10:41.393Z,63.40
2018-06-29T02:13:09.537Z,63.30
2018-06-29T02:15:38.521Z,63.30
2018-06-29T02:18:06.712Z,63.20
2018-06-29T02:20:34.910Z,63.30
2018-06-29T02:23:03.029Z,63.10
2018-06-29T02:25:31.181Z,63.30
2018-06-29T02:27:59.312Z,63.20
2018-06-29T02:30:27.441Z,63.10
2018-06-29T02:32:55.552Z,63.10
2018-06-29T02:35:23.693Z,63.10
2018-06-29T02:37:51.817Z,63.30
2018-06-29T02:40:19.956Z,63.30
2018-06-29T02:42:48.089Z,63.50
2018-06-29T02:45:16.212Z,63.10
2018-06-29T02:47:44.378Z,63.20
2018-06-29T02:50:12.477Z,63.20
2018-06-29T02:52:40.608Z,63.60
2018-06-29T02:55:08.799Z,63.40
2018-06-29T02:57:36.948Z,63.30
2018-06-29T03:00:06.153Z,63.10
2018-06-29T03:02:34.272Z,62.90
2018-06-29T03:05:02.769Z,62.80
2018-06-29T03:07:30.889Z,63.10
2018-06-29T03:09:59.015Z,63.00
2018-06-29T03:12:27.166Z,64.10
2018-06-29T03:14:55.273Z,63.50
2018-06-29T03:17:24.192Z,63.60
2018-06-29T03:19:52.452Z,63.60
2018-06-29T03:22:20.578Z,63.70
2018-06-29T03:24:48.732Z,63.90
2018-06-29T03:27:17.157Z,64.00
2018-06-29T03:29:46.284Z,64.10
2018-06-29T03:32:14.503Z,63.90
2018-06-29T03:34:42.904Z,64.10
2018-06-29T03:37:11.181Z,63.90
2018-06-29T03:39:39.292Z,64.00
2018-06-29T03:42:07.434Z,63.90
2018-06-29T03:44:35.545Z,64.30
2018-06-29T03:47:03.931Z,64.30
2018-06-29T03:49:32.144Z,64.30
2018-06-29T03:52:00.895Z,64.00
2018-06-29T03:54:29.032Z,64.10
2018-06-29T03:56:57.158Z,64.10
2018-06-29T03:59:25.280Z,64.10
2018-06-29T04:01:53.405Z,64.10
2018-06-29T04:04:21.545Z,64.00
2018-06-29T04:06:49.675Z,64.00
2018-06-29T04:09:17.776Z,63.80
2018-06-29T04:11:46.486Z,63.90
2018-06-29T04:14:14.541Z,64.30
2018-06-29T04:16:42.668Z,64.00
2018-06-29T04:19:11.376Z,64.00
2018-06-29T04:21:39.500Z,64.20
2018-06-29T04:24:07.624Z,64.00
2018-06-29T04:26:35.800Z,64.00
2018-06-29T04:29:03.882Z,64.00
2018-06-29T04:31:32.213Z,64.10
2018-06-29T04:34:00.920Z,63.80
2018-06-29T04:36:29.060Z,64.20
2018-06-29T04:38:57.176Z,64.00
2018-06-29T04:41:25.385Z,64.00
2018-06-29T04:43:53.729Z,64.00
2018-06-29T04:46:21.850Z,64.20
2018-06-29T04:48:49.992Z,64.20
2018-06-29T04:51:18.120Z,64.10
2018-06-29T04:53:46.241Z,64.00
2018-06-29T04:56:14.974Z,63.70
2018-06-29T04:58:43.100Z,63.60
2018-06-29T05:01:11.227Z,63.80
2018-06-29T05:03:39.384Z,63.30
2018-06-29T05:06:07.523Z,63.40
2018-06-29T05:08:35.628Z,63.10
2018-06-29T05:11:03.766Z,63.20
2018-06-29T05:13:31.882Z,63.30
2018-06-29T05:16:00.031Z,63.10
2018-06-29T05:18:28.148Z,63.10
2018-06-29T05:20:56.372Z,63.50
2018-06-29T05:23:24.694Z,63.60
2018-06-29T05:25:52.830Z,63.40
2018-06-29T05:28:20.957Z,63.80
2018-06-29T05:30:49.077Z,63.30
2018-06-29T05:33:17.264Z,63.50
2018-06-29T05:35:45.400Z,63.70
2018-06-29T05:38:13.505Z,63.50
2018-06-29T05:40:42.150Z,63.50
2018-06-29T05:43:10.279Z,63.40
2018-06-29T05:45:38.389Z,63.10
2018-06-29T05:48:06.526Z,62.90
2018-06-29T05:50:34.634Z,62.50
2018-06-29T05:53:02.777Z,62.30
2018-06-29T05:55:30.909Z,62.20
2018-06-29T05:57:59.024Z,63.00
2018-06-29T06:00:27.152Z,62.20
2018-06-29T06:02:55.321Z,61.70
2018-06-29T06:05:23.463Z,61.70
2018-06-29T06:07:51.569Z,60.80
2018-06-29T06:10:19.736Z,61.40
2018-06-29T06:12:47.861Z,60.90
2018-06-29T06:15:15.981Z,60.40
2018-06-29T06:17:44.117Z,60.60
2018-06-29T06:20:14.297Z,60.00
2018-06-29T06:22:42.509Z,60.00
2018-06-29T06:25:10.656Z,59.50
2018-06-29T06:27:38.768Z,59.70
2018-06-29T06:30:06.985Z,60.00
2018-06-29T06:32:35.107Z,59.90
2018-06-29T06:35:03.245Z,59.20
2018-06-29T06:37:31.376Z,59.10
2018-06-29T06:39:59.509Z,58.50
2018-06-29T06:42:27.685Z,58.40
2018-06-29T06:44:55.841Z,58.10
2018-06-29T06:47:23.956Z,58.20
2018-06-29T06:49:52.081Z,57.20
2018-06-29T06:52:20.940Z,57.00
2018-06-29T06:54:49.082Z,56.60
2018-06-29T06:57:17.219Z,56.40
2018-06-29T06:59:45.344Z,56.10
2018-06-29T07:02:14.422Z,55.90
2018-06-29T07:04:42.552Z,56.00
2018-06-29T07:07:21.993Z,55.00
2018-06-29T07:09:50.126Z,54.60
2018-06-29T07:12:18.259Z,54.30
2018-06-29T07:14:46.404Z,53.00
2018-06-29T07:17:14.529Z,53.60
2018-06-29T07:19:42.654Z,53.10
2018-06-29T07:22:10.780Z,52.10
2018-06-29T07:24:38.902Z,52.00
2018-06-29T07:27:07.031Z,51.40
2018-06-29T07:29:35.178Z,50.40
2018-06-29T07:32:03.305Z,50.60
2018-06-29T07:34:31.429Z,50.30
2018-06-29T07:36:59.564Z,50.60
2018-06-29T07:39:27.689Z,50.70
2018-06-29T07:41:55.813Z,51.40
2018-06-29T07:44:23.952Z,51.40
2018-06-29T07:46:52.067Z,51.60
2018-06-29T07:49:20.191Z,51.40
2018-06-29T07:51:48.609Z,51.80
2018-06-29T07:54:16.725Z,52.00
2018-06-29T07:56:44.830Z,51.80
2018-06-29T07:59:13.193Z,51.70
2018-06-29T08:01:41.330Z,50.60
2018-06-29T08:04:09.447Z,50.40
2018-06-29T08:06:37.698Z,50.20
2018-06-29T08:09:08.497Z,50.30
2018-06-29T08:11:36.651Z,49.30
2018-06-29T08:14:04.784Z,49.10
2018-06-29T08:16:32.921Z,48.20
2018-06-29T08:19:01.054Z,47.00
2018-06-29T08:21:29.190Z,47.20
2018-06-29T08:23:57.317Z,47.50
2018-06-29T08:26:26.986Z,47.50
2018-06-29T08:28:55.142Z,48.20
2018-06-29T08:31:23.261Z,48.20
2018-06-29T08:33:51.421Z,47.60
2018-06-29T08:36:19.545Z,47.80
2018-06-29T08:38:47.671Z,48.40
2018-06-29T08:41:15.805Z,47.60
2018-06-29T08:43:43.920Z,46.80
2018-06-29T08:46:12.052Z,47.90
2018-06-29T08:48:40.181Z,46.80
2018-06-29T08:51:08.350Z,47.30
2018-06-29T08:53:36.481Z,48.00
2018-06-29T08:56:05.137Z,46.70
2018-06-29T08:58:33.257Z,45.90
2018-06-29T09:01:01.396Z,46.40
2018-06-29T09:03:29.681Z,45.50
2018-06-29T09:05:57.792Z,46.20
2018-06-29T09:08:25.929Z,45.40
2018-06-29T09:11:03.929Z,44.60
2018-06-29T09:13:32.041Z,44.30
2018-06-29T09:16:00.168Z,43.70
2018-06-29T09:18:28.625Z,45.00
2018-06-29T09:20:56.761Z,45.20
2018-06-29T09:23:24.891Z,45.50
2018-06-29T09:25:53.021Z,45.90
2018-06-29T09:28:21.136Z,45.20
2018-06-29T09:30:49.249Z,45.60
2018-06-29T09:33:17.386Z,45.50
2018-06-29T09:35:45.510Z,44.90
2018-06-29T09:38:13.627Z,44.30
2018-06-29T09:40:41.793Z,44.80
2018-06-29T09:43:09.920Z,44.70
2018-06-29T09:45:38.029Z,43.40
2018-06-29T09:48:06.373Z,42.90
2018-06-29T09:50:34.306Z,40.90
2018-06-29T09:53:02.532Z,42.30
2018-06-29T09:55:30.669Z,40.90
2018-06-29T09:57:58.788Z,42.20
2018-06-29T10:00:31.799Z,41.60
2018-06-29T10:03:00.521Z,42.50
2018-06-29T10:05:29.113Z,41.80
2018-06-29T10:07:57.338Z,41.40
2018-06-29T10:10:25.457Z,41.30
2018-06-29T10:12:54.756Z,42.40
2018-06-29T10:15:22.890Z,42.00
2018-06-29T10:17:51.027Z,41.30
2018-06-29T10:20:19.252Z,42.00
2018-06-29T10:22:47.329Z,41.60
2018-06-29T10:25:15.513Z,39.90
2018-06-29T10:27:43.573Z,39.90
2018-06-29T10:30:11.717Z,40.50
2018-06-29T10:32:39.828Z,40.20
2018-06-29T10:35:08.816Z,41.20
2018-06-29T10:37:36.938Z,40.90
2018-06-29T10:40:05.250Z,40.50
2018-06-29T10:42:33.714Z,40.50
2018-06-29T10:45:01.927Z,40.70
2018-06-29T10:47:30.015Z,40.50
2018-06-29T10:49:58.173Z,40.10
2018-06-29T10:52:26.465Z,41.40
2018-06-29T10:54:54.898Z,40.20
2018-06-29T10:57:23.086Z,40.20
2018-06-29T10:59:51.213Z,39.30
2018-06-29T11:02:19.363Z,39.10
2018-06-29T11:04:47.585Z,39.00
2018-06-29T11:07:15.717Z,39.20
2018-06-29T11:09:43.838Z,38.70
2018-06-29T11:12:11.974Z,39.20
2018-06-29T11:14:41.116Z,38.40
2018-06-29T11:17:09.381Z,38.20
2018-06-29T11:19:37.544Z,38.10
2018-06-29T11:22:05.828Z,38.50
2018-06-29T11:24:33.944Z,39.30
2018-06-29T11:27:02.558Z,39.80
2018-06-29T11:29:30.680Z,39.00
2018-06-29T11:31:58.804Z,38.50
2018-06-29T11:34:26.941Z,39.00
2018-06-29T11:36:55.736Z,38.10
2018-06-29T11:39:23.858Z,38.00
2018-06-29T11:41:52.005Z,37.80
2018-06-29T11:44:20.130Z,37.60
2018-06-29T11:46:48.256Z,38.00
2018-06-29T11:49:16.457Z,37.80
2018-06-29T11:51:44.777Z,38.10
2018-06-29T11:54:12.893Z,36.30
2018-06-29T11:56:41.043Z,35.30
2018-06-29T11:59:09.157Z,36.60
2018-06-29T12:01:37.277Z,36.20
2018-06-29T12:04:05.424Z,35.90
2018-06-29T12:06:33.546Z,36.50
2018-06-29T12:09:01.664Z,36.30
2018-06-29T12:11:30.305Z,36.50
2018-06-29T12:13:58.570Z,37.00
2018-06-29T12:16:27.009Z,37.10
2018-06-29T12:18:55.137Z,37.10
2018-06-29T12:21:23.252Z,36.90
2018-06-29T12:23:51.369Z,36.50
2018-06-29T12:26:19.511Z,37.30
2018-06-29T12:28:47.640Z,36.90
2018-06-29T12:31:15.753Z,37.30
2018-06-29T12:33:43.960Z,35.60
2018-06-29T12:36:12.073Z,35.60
2018-06-29T12:38:40.219Z,35.50
2018-06-29T12:41:08.346Z,35.70
2018-06-29T12:43:36.469Z,36.30
2018-06-29T12:46:04.614Z,36.20
2018-06-29T12:48:32.737Z,34.50
2018-06-29T12:51:00.852Z,35.50
2018-06-29T12:53:28.980Z,34.50
2018-06-29T12:55:58.051Z,33.60
2018-06-29T12:58:26.260Z,34.20
2018-06-29T13:00:54.326Z,35.40
2018-06-29T13:03:22.448Z,34.90
2018-06-29T13:05:50.573Z,34.80
2018-06-29T13:08:18.684Z,33.80
2018-06-29T13:10:46.836Z,34.30
2018-06-29T13:13:14.957Z,33.80
2018-06-29T13:15:43.085Z,33.80
2018-06-29T13:18:12.030Z,33.10
2018-06-29T13:20:40.152Z,32.30
2018-06-29T13:23:08.293Z,32.40
2018-06-29T13:25:36.447Z,32.40
2018-06-29T13:28:04.764Z,33.60
2018-06-29T13:30:32.880Z,33.20
2018-06-29T13:33:01.001Z,32.70
2018-06-29T13:35:29.121Z,32.00
2018-06-29T13:37:57.249Z,32.80
2018-06-29T13:40:25.448Z,33.00
2018-06-29T13:42:53.590Z,31.70
2018-06-29T13:45:21.701Z,32.50
2018-06-29T13:47:49.848Z,32.90
2018-06-29T13:50:17.953Z,32.50
2018-06-29T13:52:46.081Z,33.40
2018-06-29T13:55:14.229Z,32.80
2018-06-29T13:57:42.357Z,32.10
2018-06-29T14:00:10.500Z,32.70
2018-06-29T14:02:39.109Z,32.80
2018-06-29T14:05:07.248Z,32.60
2018-06-29T14:07:35.359Z,33.40
2018-06-29T14:10:03.555Z,32.60
2018-06-29T14:12:31.681Z,32.60
2018-06-29T14:14:59.809Z,32.60
2018-06-29T14:17:27.961Z,31.80
2018-06-29T14:19:56.924Z,32.40
2018-06-29T14:22:25.062Z,30.90
2018-06-29T14:24:53.712Z,31.10
2018-06-29T14:27:21.847Z,32.60
2018-06-29T14:29:49.965Z,33.10
2018-06-29T14:32:18.097Z,32.80
2018-06-29T14:34:46.306Z,32.60
2018-06-29T14:37:14.369Z,32.20
2018-06-29T14:39:42.706Z,32.20
2018-06-29T14:42:10.825Z,32.40
2018-06-29T14:44:38.949Z,31.50
2018-06-29T14:47:07.153Z,32.20
2018-06-29T14:49:35.269Z,32.40
2018-06-29T14:52:03.429Z,31.70
2018-06-29T14:54:31.552Z,32.50
2018-06-29T14:56:59.667Z,33.10
2018-06-29T14:59:27.781Z,33.00
2018-06-29T15:01:55.912Z,33.30
2018-06-29T15:04:24.056Z,32.30
2018-06-29T15:06:52.185Z,32.50
2018-06-29T15:09:20.616Z,33.70
2018-06-29T15:11:48.743Z,33.70
2018-06-29T15:14:16.862Z,33.30
2018-06-29T15:16:45.030Z,33.30
2018-06-29T15:19:13.145Z,33.70
2018-06-29T15:21:41.627Z,34.60
2018-06-29T15:24:09.706Z,33.80
2018-06-29T15:26:37.825Z,33.30
2018-06-29T15:29:05.997Z,34.40
2018-06-29T15:31:34.237Z,34.00
2018-06-29T15:34:02.292Z,33.50
2018-06-29T15:36:30.412Z,33.80
2018-06-29T15:38:58.564Z,33.60
2018-06-29T15:41:26.690Z,33.70
2018-06-29T15:43:54.812Z,34.30
2018-06-29T15:46:22.949Z,33.50
2018-06-29T15:48:51.072Z,33.90
2018-06-29T15:51:19.220Z,34.00
2018-06-29T15:53:47.372Z,34.40
2018-06-29T15:56:15.495Z,35.20
2018-06-29T15:58:43.617Z,34.70
2018-06-29T16:01:11.769Z,34.30
2018-06-29T16:03:39.878Z,34.20
2018-06-29T16:06:07.993Z,34.20
2018-06-29T16:08:36.128Z,34.10
2018-06-29T16:11:04.272Z,34.30
2018-06-29T16:13:32.393Z,34.30
2018-06-29T16:16:02.198Z,34.10
2018-06-29T16:18:30.316Z,34.90
2018-06-29T16:20:58.436Z,34.80
2018-06-29T16:23:27.606Z,33.80
2018-06-29T16:26:02.326Z,34.20
2018-06-29T16:28:30.461Z,34.80
2018-06-29T16:30:58.577Z,35.30
2018-06-29T16:33:26.693Z,35.70
2018-06-29T16:35:55.332Z,34.60
2018-06-29T16:38:23.481Z,34.40
2018-06-29T16:40:51.625Z,34.10
2018-06-29T16:43:19.744Z,34.70
2018-06-29T16:45:47.881Z,34.70
2018-06-29T16:48:15.996Z,33.90
2018-06-29T16:50:44.204Z,34.50
2018-06-29T16:53:12.277Z,34.80
2018-06-29T16:55:40.409Z,35.10
2018-06-29T16:58:09.103Z,34.50
2018-06-29T17:00:37.225Z,35.50
2018-06-29T17:03:05.438Z,35.80
2018-06-29T17:05:33.592Z,35.00
2018-06-29T17:08:01.716Z,35.30
2018-06-29T17:10:29.835Z,34.90
2018-06-29T17:12:58.044Z,35.10
2018-06-29T17:15:26.176Z,34.70
2018-06-29T17:17:54.963Z,35.10
2018-06-29T17:20:23.167Z,35.10
2018-06-29T17:22:51.320Z,35.50
2018-06-29T17:25:29.901Z,34.60
2018-06-29T17:27:58.017Z,34.70
2018-06-29T17:30:26.150Z,35.40
2018-06-29T17:32:54.296Z,35.70
2018-06-29T17:35:22.417Z,35.80
2018-06-29T17:37:50.553Z,35.80
2018-06-29T17:40:19.213Z,35.90
2018-06-29T17:42:47.332Z,36.30
2018-06-29T17:45:15.576Z,35.70
2018-06-29T17:47:45.561Z,36.10
2018-06-29T17:50:13.745Z,36.10
2018-06-29T17:52:41.921Z,37.00
2018-06-29T17:55:10.106Z,37.10
2018-06-29T17:57:38.137Z,37.40
2018-06-29T18:00:06.947Z,37.40
2018-06-29T18:02:35.477Z,37.20
2018-06-29T18:05:03.609Z,37.50
2018-06-29T18:07:31.740Z,37.40
2018-06-29T18:09:59.940Z,37.70
2018-06-29T18:12:28.009Z,38.00
2018-06-29T18:14:56.152Z,38.50
2018-06-29T18:17:24.282Z,38.60
2018-06-29T18:19:53.066Z,38.40
2018-06-29T18:22:21.209Z,38.90
2018-06-29T18:24:49.433Z,39.00
2018-06-29T18:27:18.891Z,39.00
2018-06-29T18:29:47.084Z,39.50
2018-06-29T18:32:15.185Z,39.60
2018-06-29T18:34:43.311Z,39.70
2018-06-29T18:37:11.640Z,39.80
2018-06-29T18:39:39.763Z,40.20
2018-06-29T18:42:07.963Z,40.40
2018-06-29T18:44:36.305Z,40.50
2018-06-29T18:47:04.449Z,40.40
2018-06-29T18:49:32.577Z,40.40
2018-06-29T18:52:00.845Z,40.80
2018-06-29T18:54:28.973Z,40.80
2018-06-29T18:56:57.093Z,41.30
2018-06-29T18:59:25.302Z,41.30
2018-06-29T19:01:53.428Z,42.00
2018-06-29T19:04:21.569Z,42.30
2018-06-29T19:06:49.717Z,43.00
2018-06-29T19:09:17.857Z,43.40
2018-06-29T19:11:45.997Z,43.30
2018-06-29T19:14:14.141Z,43.40
2018-06-29T19:16:42.279Z,43.60
2018-06-29T19:19:10.402Z,43.80
2018-06-29T19:21:38.610Z,44.20
2018-06-29T19:24:06.738Z,44.90
2018-06-29T19:26:34.870Z,45.20
2018-06-29T19:29:04.061Z,45.80
2018-06-29T19:31:32.241Z,46.20
2018-06-29T19:34:00.360Z,46.60
2018-06-29T19:36:29.026Z,47.00
2018-06-29T19:38:57.177Z,47.30
2018-06-29T19:41:25.277Z,47.60
2018-06-29T19:43:53.443Z,48.20
2018-06-29T19:46:21.574Z,48.50
2018-06-29T19:48:49.696Z,49.40
2018-06-29T19:51:18.589Z,49.90
2018-06-29T19:53:46.714Z,51.10
2018-06-29T19:56:14.845Z,51.40
2018-06-29T19:58:43.146Z,50.90
2018-06-29T20:01:11.253Z,51.50
2018-06-29T20:03:39.397Z,51.00
2018-06-29T20:06:07.529Z,50.60
2018-06-29T20:08:35.654Z,50.70
2018-06-29T20:11:03.782Z,51.20
2018-06-29T20:13:32.434Z,50.90
2018-06-29T20:16:00.557Z,50.70
2018-06-29T20:18:28.676Z,50.60
2018-06-29T20:20:56.837Z,50.30
2018-06-29T20:23:24.963Z,50.10
2018-06-29T20:25:53.096Z,50.00
2018-06-29T20:28:21.241Z,50.20
2018-06-29T20:30:49.959Z,50.20
2018-06-29T20:33:18.373Z,50.10
2018-06-29T20:35:46.418Z,50.00
2018-06-29T20:38:14.608Z,50.40
2018-06-29T20:40:42.675Z,49.70
2018-06-29T20:43:10.802Z,50.40
2018-06-29T20:45:38.919Z,50.10
2018-06-29T20:48:07.074Z,50.40
2018-06-29T20:50:35.258Z,50.20
2018-06-29T20:53:03.465Z,50.10
2018-06-29T20:55:31.646Z,50.30
2018-06-29T20:57:59.841Z,50.50
2018-06-29T21:00:28.022Z,50.50
2018-06-29T21:02:56.148Z,50.60
2018-06-29T21:05:24.932Z,50.50
2018-06-29T21:07:53.031Z,50.40
2018-06-29T21:10:21.153Z,50.30
2018-06-29T21:12:49.292Z,50.50
2018-06-29T21:15:17.426Z,50.90
2018-06-29T21:17:45.579Z,50.60
2018-06-29T21:20:14.197Z,50.50
2018-06-29T21:22:42.457Z,50.90
2018-06-29T21:25:10.658Z,50.70
2018-06-29T21:27:38.774Z,50.70
2018-06-29T21:30:07.437Z,50.70
2018-06-29T21:32:35.742Z,50.70
2018-06-29T21:35:04.198Z,50.80
2018-06-29T21:37:32.325Z,50.70
2018-06-29T21:40:00.506Z,50.70
2018-06-29T21:42:30.470Z,50.90
2018-06-29T21:44:58.639Z,50.60
2018-06-29T21:47:26.734Z,50.50
2018-06-29T21:49:54.934Z,50.30
2018-06-29T21:52:23.095Z,50.50
2018-06-29T21:54:51.243Z,50.80
2018-06-29T21:57:19.386Z,50.60
2018-06-29T21:59:47.506Z,50.30
2018-06-29T22:04:49.726Z,50.90
2018-06-29T22:07:17.821Z,50.10
2018-06-29T22:09:45.989Z,50.60
2018-06-29T22:12:14.161Z,50.60
2018-06-29T22:14:42.294Z,50.40
2018-06-29T22:17:10.521Z,50.60
2018-06-29T22:19:38.687Z,50.60
2018-06-29T22:22:06.830Z,50.30
2018-06-29T22:24:35.053Z,50.50
2018-06-29T22:27:03.456Z,50.40
2018-06-29T22:29:31.575Z,50.60
2018-06-29T22:31:59.694Z,50.70
2018-06-29T22:34:28.844Z,50.40
2018-06-29T22:36:57.132Z,50.30
2018-06-29T22:39:25.256Z,50.80
2018-06-29T22:41:53.388Z,51.10
2018-06-29T22:44:21.502Z,50.90
2018-06-29T22:46:49.621Z,51.40
2018-06-29T22:49:17.785Z,51.10
2018-06-29T22:51:45.908Z,51.30
2018-06-29T22:54:14.042Z,51.60
2018-06-29T22:56:42.181Z,51.90
2018-06-29T22:59:10.301Z,51.90
2018-06-29T23:01:38.429Z,52.10
2018-06-29T23:04:06.570Z,51.80
2018-06-29T23:06:41.105Z,51.40
2018-06-29T23:09:09.609Z,51.90
2018-06-29T23:11:37.725Z,52.30
2018-06-29T23:14:05.897Z,52.30
2018-06-29T23:16:34.084Z,53.00
2018-06-29T23:19:02.207Z,52.70
2018-06-29T23:21:30.313Z,52.80
2018-06-29T23:23:58.482Z,52.80
2018-06-29T23:26:26.608Z,53.30
2018-06-29T23:28:54.720Z,53.00
2018-06-29T23:31:22.900Z,53.20
2018-06-29T23:33:51.013Z,53.00
2018-06-29T23:36:29.337Z,53.50
2018-06-29T23:38:57.648Z,53.50
2018-06-29T23:41:25.862Z,53.90
2018-06-29T23:43:54.174Z,53.40
2018-06-29T23:46:22.303Z,53.50
2018-06-29T23:48:50.444Z,53.80
2018-06-29T23:51:18.585Z,54.00
2018-06-29T23:53:46.704Z,53.90
2018-06-29T23:56:14.829Z,54.20
2018-06-29T23:58:42.964Z,54.70
